Terminal Aerodrome Forecast
Issued by NWS Blacksburg, VA

Home | Current Version | Previous Version | Text Only | Print | Product List | Glossary On
Versions: 1 2 3 4 5 6 7 8 9 10 11
000
FTUS41 KRNK 231720
TAFLYH
TAF
KLYH 231720Z 2318/2418 12010KT P6SM OVC130
     FM232200 10010KT P6SM OVC035
      TEMPO 2322/2324 2SM -RA OVC012
     FM240500 07015KT 5SM -RA BR OVC014
     FM241200 07015KT 3SM RA BR OVC008=

USA.gov is the U.S. government's official web portal to all federal, state and local government web resources and services.